sensor_id;sensor_type;location;lat;lon;timestamp;P1;durP1;ratioP1;P2;durP2;ratioP2
11970;SDS011;6045;42.682;23.294;2023-12-14T00:00:44;24.83;;;11.83;;
11970;SDS011;6045;42.682;23.294;2023-12-14T00:03:11;19.23;;;11.40;;
11970;SDS011;6045;42.682;23.294;2023-12-14T00:05:38;19.53;;;10.90;;
11970;SDS011;6045;42.682;23.294;2023-12-14T00:08:06;19.40;;;11.30;;
11970;SDS011;6045;42.682;23.294;2023-12-14T00:10:34;19.57;;;10.40;;
11970;SDS011;6045;42.682;23.294;2023-12-14T00:13:01;20.20;;;10.67;;
11970;SDS011;6045;42.682;23.294;2023-12-14T00:15:29;24.43;;;11.57;;
11970;SDS011;6045;42.682;23.294;2023-12-14T00:17:56;19.00;;;10.97;;
11970;SDS011;6045;42.682;23.294;2023-12-14T00:20:23;20.13;;;11.13;;
11970;SDS011;6045;42.682;23.294;2023-12-14T00:22:50;20.00;;;11.00;;
11970;SDS011;6045;42.682;23.294;2023-12-14T00:25:19;19.90;;;11.50;;
11970;SDS011;6045;42.682;23.294;2023-12-14T00:27:46;19.87;;;10.70;;
11970;SDS011;6045;42.682;23.294;2023-12-14T00:30:30;23.07;;;11.43;;
11970;SDS011;6045;42.682;23.294;2023-12-14T00:32:57;19.00;;;10.63;;
11970;SDS011;6045;42.682;23.294;2023-12-14T00:35:24;19.33;;;10.53;;
11970;SDS011;6045;42.682;23.294;2023-12-14T00:37:51;19.03;;;11.33;;
11970;SDS011;6045;42.682;23.294;2023-12-14T00:40:19;19.67;;;11.20;;
11970;SDS011;6045;42.682;23.294;2023-12-14T00:42:46;17.20;;;10.83;;
11970;SDS011;6045;42.682;23.294;2023-12-14T00:45:13;17.77;;;11.17;;
11970;SDS011;6045;42.682;23.294;2023-12-14T00:47:40;18.20;;;10.97;;
11970;SDS011;6045;42.682;23.294;2023-12-14T00:50:07;21.83;;;11.03;;
11970;SDS011;6045;42.682;23.294;2023-12-14T00:52:35;17.03;;;10.60;;
11970;SDS011;6045;42.682;23.294;2023-12-14T00:55:02;20.03;;;11.27;;
11970;SDS011;6045;42.682;23.294;2023-12-14T00:57:31;21.43;;;11.10;;
11970;SDS011;6045;42.682;23.294;2023-12-14T00:59:57;18.00;;;10.53;;
11970;SDS011;6045;42.682;23.294;2023-12-14T01:02:24;21.17;;;10.70;;
11970;SDS011;6045;42.682;23.294;2023-12-14T01:04:51;16.20;;;9.60;;
11970;SDS011;6045;42.682;23.294;2023-12-14T01:07:18;17.63;;;9.20;;
11970;SDS011;6045;42.682;23.294;2023-12-14T01:09:45;15.27;;;9.70;;
11970;SDS011;6045;42.682;23.294;2023-12-14T01:12:12;15.93;;;9.93;;
11970;SDS011;6045;42.682;23.294;2023-12-14T01:14:40;18.97;;;10.67;;
11970;SDS011;6045;42.682;23.294;2023-12-14T01:17:07;19.10;;;10.37;;
11970;SDS011;6045;42.682;23.294;2023-12-14T01:19:34;15.30;;;9.27;;
11970;SDS011;6045;42.682;23.294;2023-12-14T01:22:01;17.17;;;9.67;;
11970;SDS011;6045;42.682;23.294;2023-12-14T01:24:28;16.00;;;10.10;;
11970;SDS011;6045;42.682;23.294;2023-12-14T01:26:55;20.40;;;10.27;;
11970;SDS011;6045;42.682;23.294;2023-12-14T01:29:22;20.17;;;11.20;;
11970;SDS011;6045;42.682;23.294;2023-12-14T01:31:50;17.27;;;10.87;;
11970;SDS011;6045;42.682;23.294;2023-12-14T01:34:17;20.13;;;10.50;;
11970;SDS011;6045;42.682;23.294;2023-12-14T01:36:44;20.00;;;10.43;;
11970;SDS011;6045;42.682;23.294;2023-12-14T01:39:11;18.57;;;11.50;;
11970;SDS011;6045;42.682;23.294;2023-12-14T01:41:37;17.80;;;10.87;;
11970;SDS011;6045;42.682;23.294;2023-12-14T01:44:04;20.30;;;11.20;;
11970;SDS011;6045;42.682;23.294;2023-12-14T01:46:31;17.93;;;10.23;;
11970;SDS011;6045;42.682;23.294;2023-12-14T01:48:59;16.50;;;9.70;;
11970;SDS011;6045;42.682;23.294;2023-12-14T01:51:26;19.10;;;9.83;;
11970;SDS011;6045;42.682;23.294;2023-12-14T01:53:54;17.87;;;10.97;;
11970;SDS011;6045;42.682;23.294;2023-12-14T01:56:21;20.50;;;11.03;;
11970;SDS011;6045;42.682;23.294;2023-12-14T01:58:47;19.37;;;10.87;;
11970;SDS011;6045;42.682;23.294;2023-12-14T02:01:17;20.30;;;10.10;;
11970;SDS011;6045;42.682;23.294;2023-12-14T02:03:50;19.20;;;10.53;;
11970;SDS011;6045;42.682;23.294;2023-12-14T02:06:21;20.10;;;10.00;;
11970;SDS011;6045;42.682;23.294;2023-12-14T02:08:47;17.67;;;9.27;;
11970;SDS011;6045;42.682;23.294;2023-12-14T02:11:14;17.47;;;9.43;;
11970;SDS011;6045;42.682;23.294;2023-12-14T02:13:41;15.57;;;9.37;;
11970;SDS011;6045;42.682;23.294;2023-12-14T02:16:08;15.70;;;8.40;;
11970;SDS011;6045;42.682;23.294;2023-12-14T02:18:35;15.20;;;9.00;;
11970;SDS011;6045;42.682;23.294;2023-12-14T02:21:02;17.23;;;9.93;;
11970;SDS011;6045;42.682;23.294;2023-12-14T02:23:31;17.73;;;9.13;;
11970;SDS011;6045;42.682;23.294;2023-12-14T02:25:58;16.03;;;9.37;;
11970;SDS011;6045;42.682;23.294;2023-12-14T02:28:25;13.27;;;9.23;;
11970;SDS011;6045;42.682;23.294;2023-12-14T02:30:52;13.23;;;8.37;;
11970;SDS011;6045;42.682;23.294;2023-12-14T02:33:19;16.53;;;8.97;;
11970;SDS011;6045;42.682;23.294;2023-12-14T02:35:46;14.10;;;8.73;;
11970;SDS011;6045;42.682;23.294;2023-12-14T02:38:13;16.53;;;9.70;;
11970;SDS011;6045;42.682;23.294;2023-12-14T02:40:41;19.57;;;9.00;;
11970;SDS011;6045;42.682;23.294;2023-12-14T02:43:08;15.57;;;8.37;;
11970;SDS011;6045;42.682;23.294;2023-12-14T02:45:35;15.07;;;8.37;;
11970;SDS011;6045;42.682;23.294;2023-12-14T02:48:02;16.50;;;8.90;;
11970;SDS011;6045;42.682;23.294;2023-12-14T02:50:30;15.33;;;8.43;;
11970;SDS011;6045;42.682;23.294;2023-12-14T02:52:57;16.83;;;8.70;;
11970;SDS011;6045;42.682;23.294;2023-12-14T02:55:24;15.27;;;8.77;;
11970;SDS011;6045;42.682;23.294;2023-12-14T02:57:52;12.03;;;8.53;;
11970;SDS011;6045;42.682;23.294;2023-12-14T03:00:19;14.53;;;8.33;;
11970;SDS011;6045;42.682;23.294;2023-12-14T03:02:46;14.27;;;8.30;;
11970;SDS011;6045;42.682;23.294;2023-12-14T03:05:13;13.73;;;8.57;;
11970;SDS011;6045;42.682;23.294;2023-12-14T03:07:40;13.70;;;7.90;;
11970;SDS011;6045;42.682;23.294;2023-12-14T03:10:07;14.17;;;7.73;;
11970;SDS011;6045;42.682;23.294;2023-12-14T03:12:35;14.30;;;8.13;;
11970;SDS011;6045;42.682;23.294;2023-12-14T03:15:05;14.10;;;7.70;;
11970;SDS011;6045;42.682;23.294;2023-12-14T03:17:35;13.00;;;8.30;;
11970;SDS011;6045;42.682;23.294;2023-12-14T03:20:02;15.63;;;7.77;;
11970;SDS011;6045;42.682;23.294;2023-12-14T03:22:31;11.80;;;7.73;;
11970;SDS011;6045;42.682;23.294;2023-12-14T03:24:58;12.87;;;7.60;;
11970;SDS011;6045;42.682;23.294;2023-12-14T03:27:25;12.67;;;7.10;;
11970;SDS011;6045;42.682;23.294;2023-12-14T03:29:51;15.43;;;7.70;;
11970;SDS011;6045;42.682;23.294;2023-12-14T03:32:19;15.00;;;7.97;;
11970;SDS011;6045;42.682;23.294;2023-12-14T03:34:46;10.07;;;7.03;;
11970;SDS011;6045;42.682;23.294;2023-12-14T03:37:13;14.00;;;8.20;;
11970;SDS011;6045;42.682;23.294;2023-12-14T03:39:40;12.80;;;7.87;;
11970;SDS011;6045;42.682;23.294;2023-12-14T03:42:07;13.10;;;7.50;;
11970;SDS011;6045;42.682;23.294;2023-12-14T03:44:34;11.87;;;7.73;;
11970;SDS011;6045;42.682;23.294;2023-12-14T03:47:01;14.40;;;6.97;;
11970;SDS011;6045;42.682;23.294;2023-12-14T03:49:29;13.30;;;8.23;;
11970;SDS011;6045;42.682;23.294;2023-12-14T03:51:56;13.37;;;7.80;;
11970;SDS011;6045;42.682;23.294;2023-12-14T03:54:23;11.00;;;7.50;;
11970;SDS011;6045;42.682;23.294;2023-12-14T03:56:50;15.73;;;7.80;;
11970;SDS011;6045;42.682;23.294;2023-12-14T03:59:16;14.47;;;7.60;;
11970;SDS011;6045;42.682;23.294;2023-12-14T04:01:43;13.37;;;7.67;;
11970;SDS011;6045;42.682;23.294;2023-12-14T04:04:10;10.70;;;7.00;;
11970;SDS011;6045;42.682;23.294;2023-12-14T04:06:39;11.90;;;6.97;;
11970;SDS011;6045;42.682;23.294;2023-12-14T04:09:05;12.07;;;7.47;;
11970;SDS011;6045;42.682;23.294;2023-12-14T04:11:32;14.50;;;7.87;;
11970;SDS011;6045;42.682;23.294;2023-12-14T04:13:59;13.40;;;7.30;;
11970;SDS011;6045;42.682;23.294;2023-12-14T04:16:26;13.30;;;6.97;;
11970;SDS011;6045;42.682;23.294;2023-12-14T04:18:53;10.60;;;7.57;;
11970;SDS011;6045;42.682;23.294;2023-12-14T04:21:21;10.73;;;7.00;;
11970;SDS011;6045;42.682;23.294;2023-12-14T04:23:49;10.23;;;6.33;;
11970;SDS011;6045;42.682;23.294;2023-12-14T04:26:16;13.10;;;7.93;;
11970;SDS011;6045;42.682;23.294;2023-12-14T04:28:43;9.33;;;6.40;;
11970;SDS011;6045;42.682;23.294;2023-12-14T04:31:11;9.43;;;6.53;;
11970;SDS011;6045;42.682;23.294;2023-12-14T04:33:38;11.53;;;6.63;;
11970;SDS011;6045;42.682;23.294;2023-12-14T04:36:05;8.10;;;5.53;;
11970;SDS011;6045;42.682;23.294;2023-12-14T04:38:32;10.83;;;6.23;;
11970;SDS011;6045;42.682;23.294;2023-12-14T04:41:01;11.30;;;6.77;;
11970;SDS011;6045;42.682;23.294;2023-12-14T04:43:28;10.20;;;6.43;;
11970;SDS011;6045;42.682;23.294;2023-12-14T04:45:55;11.43;;;6.87;;
11970;SDS011;6045;42.682;23.294;2023-12-14T04:48:22;11.33;;;7.00;;
11970;SDS011;6045;42.682;23.294;2023-12-14T04:50:49;12.43;;;7.53;;
11970;SDS011;6045;42.682;23.294;2023-12-14T04:53:16;11.40;;;7.13;;
11970;SDS011;6045;42.682;23.294;2023-12-14T04:55:43;9.90;;;6.07;;
11970;SDS011;6045;42.682;23.294;2023-12-14T04:58:12;12.67;;;6.83;;
11970;SDS011;6045;42.682;23.294;2023-12-14T05:00:39;11.20;;;7.57;;
11970;SDS011;6045;42.682;23.294;2023-12-14T05:03:06;9.77;;;6.53;;
11970;SDS011;6045;42.682;23.294;2023-12-14T05:05:33;14.07;;;6.20;;
11970;SDS011;6045;42.682;23.294;2023-12-14T05:07:59;10.30;;;6.10;;
11970;SDS011;6045;42.682;23.294;2023-12-14T05:10:26;10.73;;;6.17;;
11970;SDS011;6045;42.682;23.294;2023-12-14T05:12:53;10.53;;;8.17;;
11970;SDS011;6045;42.682;23.294;2023-12-14T05:15:21;12.07;;;7.33;;
11970;SDS011;6045;42.682;23.294;2023-12-14T05:17:48;11.77;;;7.20;;
11970;SDS011;6045;42.682;23.294;2023-12-14T05:20:15;10.73;;;7.03;;
11970;SDS011;6045;42.682;23.294;2023-12-14T05:22:42;13.23;;;6.90;;
11970;SDS011;6045;42.682;23.294;2023-12-14T05:25:09;14.97;;;6.73;;
11970;SDS011;6045;42.682;23.294;2023-12-14T05:27:36;11.77;;;6.53;;
11970;SDS011;6045;42.682;23.294;2023-12-14T05:30:03;11.47;;;6.87;;
11970;SDS011;6045;42.682;23.294;2023-12-14T05:32:32;13.63;;;7.73;;
11970;SDS011;6045;42.682;23.294;2023-12-14T05:34:59;15.37;;;7.47;;
11970;SDS011;6045;42.682;23.294;2023-12-14T05:37:26;11.43;;;6.40;;
11970;SDS011;6045;42.682;23.294;2023-12-14T05:39:53;10.20;;;6.90;;
11970;SDS011;6045;42.682;23.294;2023-12-14T05:42:20;10.93;;;7.30;;
11970;SDS011;6045;42.682;23.294;2023-12-14T05:44:50;11.17;;;7.90;;
11970;SDS011;6045;42.682;23.294;2023-12-14T05:47:17;12.00;;;7.43;;
11970;SDS011;6045;42.682;23.294;2023-12-14T05:49:46;14.97;;;7.60;;
11970;SDS011;6045;42.682;23.294;2023-12-14T05:52:15;13.57;;;7.57;;
11970;SDS011;6045;42.682;23.294;2023-12-14T05:54:42;12.20;;;7.50;;
11970;SDS011;6045;42.682;23.294;2023-12-14T05:57:09;11.13;;;7.37;;
11970;SDS011;6045;42.682;23.294;2023-12-14T05:59:38;11.13;;;7.70;;
11970;SDS011;6045;42.682;23.294;2023-12-14T06:02:05;13.20;;;7.70;;
11970;SDS011;6045;42.682;23.294;2023-12-14T06:04:32;14.27;;;7.87;;
11970;SDS011;6045;42.682;23.294;2023-12-14T06:07:00;11.93;;;8.07;;
11970;SDS011;6045;42.682;23.294;2023-12-14T06:09:27;12.73;;;8.03;;
11970;SDS011;6045;42.682;23.294;2023-12-14T06:11:59;15.40;;;9.17;;
11970;SDS011;6045;42.682;23.294;2023-12-14T06:14:26;16.60;;;8.93;;
11970;SDS011;6045;42.682;23.294;2023-12-14T06:16:53;12.37;;;8.50;;
11970;SDS011;6045;42.682;23.294;2023-12-14T06:19:20;10.87;;;7.00;;
11970;SDS011;6045;42.682;23.294;2023-12-14T06:21:47;13.43;;;9.03;;
11970;SDS011;6045;42.682;23.294;2023-12-14T06:24:15;16.37;;;9.10;;
11970;SDS011;6045;42.682;23.294;2023-12-14T06:26:42;14.60;;;8.53;;
11970;SDS011;6045;42.682;23.294;2023-12-14T06:29:10;16.87;;;9.90;;
11970;SDS011;6045;42.682;23.294;2023-12-14T06:31:38;14.37;;;9.73;;
11970;SDS011;6045;42.682;23.294;2023-12-14T06:34:05;13.30;;;9.23;;
11970;SDS011;6045;42.682;23.294;2023-12-14T06:36:33;14.37;;;8.87;;
11970;SDS011;6045;42.682;23.294;2023-12-14T06:39:00;17.67;;;9.60;;
11970;SDS011;6045;42.682;23.294;2023-12-14T06:41:29;16.63;;;9.30;;
11970;SDS011;6045;42.682;23.294;2023-12-14T06:43:56;15.47;;;8.27;;
11970;SDS011;6045;42.682;23.294;2023-12-14T06:46:23;14.07;;;9.10;;
11970;SDS011;6045;42.682;23.294;2023-12-14T06:48:50;12.73;;;8.30;;
11970;SDS011;6045;42.682;23.294;2023-12-14T06:51:17;13.70;;;8.70;;
11970;SDS011;6045;42.682;23.294;2023-12-14T06:53:44;15.50;;;8.30;;
11970;SDS011;6045;42.682;23.294;2023-12-14T06:56:12;14.20;;;7.73;;
11970;SDS011;6045;42.682;23.294;2023-12-14T06:58:41;10.90;;;6.77;;
11970;SDS011;6045;42.682;23.294;2023-12-14T07:01:11;9.90;;;6.20;;
11970;SDS011;6045;42.682;23.294;2023-12-14T07:03:39;11.97;;;7.47;;
11970;SDS011;6045;42.682;23.294;2023-12-14T07:06:11;14.27;;;7.07;;
11970;SDS011;6045;42.682;23.294;2023-12-14T07:08:38;11.03;;;6.70;;
11970;SDS011;6045;42.682;23.294;2023-12-14T07:11:06;9.07;;;7.13;;
11970;SDS011;6045;42.682;23.294;2023-12-14T07:13:33;11.50;;;5.87;;
11970;SDS011;6045;42.682;23.294;2023-12-14T07:16:04;56.43;;;29.43;;
11970;SDS011;6045;42.682;23.294;2023-12-14T07:18:33;25.20;;;15.80;;
11970;SDS011;6045;42.682;23.294;2023-12-14T07:21:00;10.60;;;6.27;;
11970;SDS011;6045;42.682;23.294;2023-12-14T07:23:27;12.57;;;8.03;;
11970;SDS011;6045;42.682;23.294;2023-12-14T07:25:54;10.10;;;7.40;;
11970;SDS011;6045;42.682;23.294;2023-12-14T07:28:21;8.50;;;6.43;;
11970;SDS011;6045;42.682;23.294;2023-12-14T07:30:49;11.50;;;7.10;;
11970;SDS011;6045;42.682;23.294;2023-12-14T07:33:17;9.67;;;6.63;;
11970;SDS011;6045;42.682;23.294;2023-12-14T07:35:44;11.53;;;5.90;;
11970;SDS011;6045;42.682;23.294;2023-12-14T07:38:11;10.37;;;6.40;;
11970;SDS011;6045;42.682;23.294;2023-12-14T07:40:38;9.43;;;6.97;;
11970;SDS011;6045;42.682;23.294;2023-12-14T07:43:05;12.13;;;7.13;;
11970;SDS011;6045;42.682;23.294;2023-12-14T07:45:33;10.23;;;6.67;;
11970;SDS011;6045;42.682;23.294;2023-12-14T07:48:01;13.73;;;6.93;;
11970;SDS011;6045;42.682;23.294;2023-12-14T07:50:30;9.60;;;6.13;;
11970;SDS011;6045;42.682;23.294;2023-12-14T07:52:57;10.17;;;6.40;;
11970;SDS011;6045;42.682;23.294;2023-12-14T07:55:24;8.43;;;6.40;;
11970;SDS011;6045;42.682;23.294;2023-12-14T07:57:51;11.07;;;6.20;;
11970;SDS011;6045;42.682;23.294;2023-12-14T08:00:18;9.23;;;6.17;;
11970;SDS011;6045;42.682;23.294;2023-12-14T08:02:45;10.63;;;5.93;;
11970;SDS011;6045;42.682;23.294;2023-12-14T08:05:12;10.03;;;6.23;;
11970;SDS011;6045;42.682;23.294;2023-12-14T08:07:40;9.53;;;6.20;;
11970;SDS011;6045;42.682;23.294;2023-12-14T08:10:25;10.47;;;6.30;;
11970;SDS011;6045;42.682;23.294;2023-12-14T08:12:51;9.30;;;5.43;;
11970;SDS011;6045;42.682;23.294;2023-12-14T08:15:18;10.17;;;5.73;;
11970;SDS011;6045;42.682;23.294;2023-12-14T08:17:45;9.87;;;6.13;;
11970;SDS011;6045;42.682;23.294;2023-12-14T08:20:12;8.70;;;5.47;;
11970;SDS011;6045;42.682;23.294;2023-12-14T08:22:41;8.53;;;5.40;;
11970;SDS011;6045;42.682;23.294;2023-12-14T08:25:10;9.03;;;5.77;;
11970;SDS011;6045;42.682;23.294;2023-12-14T08:27:39;6.57;;;5.17;;
11970;SDS011;6045;42.682;23.294;2023-12-14T08:30:06;7.10;;;5.10;;
11970;SDS011;6045;42.682;23.294;2023-12-14T08:32:34;8.50;;;5.43;;
11970;SDS011;6045;42.682;23.294;2023-12-14T08:35:01;9.63;;;5.80;;
11970;SDS011;6045;42.682;23.294;2023-12-14T08:37:28;7.30;;;5.20;;
11970;SDS011;6045;42.682;23.294;2023-12-14T08:39:56;13.97;;;5.80;;
11970;SDS011;6045;42.682;23.294;2023-12-14T08:42:23;10.90;;;6.30;;
11970;SDS011;6045;42.682;23.294;2023-12-14T08:44:50;8.43;;;5.70;;
11970;SDS011;6045;42.682;23.294;2023-12-14T08:47:16;10.40;;;5.30;;
11970;SDS011;6045;42.682;23.294;2023-12-14T08:49:43;12.30;;;5.87;;
11970;SDS011;6045;42.682;23.294;2023-12-14T08:52:10;9.53;;;5.67;;
11970;SDS011;6045;42.682;23.294;2023-12-14T08:54:39;10.20;;;5.80;;
11970;SDS011;6045;42.682;23.294;2023-12-14T08:57:10;9.87;;;5.73;;
11970;SDS011;6045;42.682;23.294;2023-12-14T08:59:37;8.43;;;4.87;;
11970;SDS011;6045;42.682;23.294;2023-12-14T09:02:04;8.37;;;5.90;;
11970;SDS011;6045;42.682;23.294;2023-12-14T09:04:31;11.40;;;5.07;;
11970;SDS011;6045;42.682;23.294;2023-12-14T09:07:00;9.67;;;5.30;;
11970;SDS011;6045;42.682;23.294;2023-12-14T09:09:31;8.53;;;4.93;;
11970;SDS011;6045;42.682;23.294;2023-12-14T09:11:58;8.13;;;5.60;;
11970;SDS011;6045;42.682;23.294;2023-12-14T09:14:26;8.87;;;5.13;;
11970;SDS011;6045;42.682;23.294;2023-12-14T09:16:54;7.87;;;5.10;;
11970;SDS011;6045;42.682;23.294;2023-12-14T09:19:22;6.20;;;5.03;;
11970;SDS011;6045;42.682;23.294;2023-12-14T09:21:48;7.53;;;5.07;;
11970;SDS011;6045;42.682;23.294;2023-12-14T09:24:15;6.80;;;5.10;;
11970;SDS011;6045;42.682;23.294;2023-12-14T09:26:42;8.67;;;4.40;;
11970;SDS011;6045;42.682;23.294;2023-12-14T09:29:09;9.10;;;4.73;;
11970;SDS011;6045;42.682;23.294;2023-12-14T09:31:39;7.43;;;4.53;;
11970;SDS011;6045;42.682;23.294;2023-12-14T09:34:07;8.33;;;4.40;;
11970;SDS011;6045;42.682;23.294;2023-12-14T09:36:34;7.80;;;5.30;;
11970;SDS011;6045;42.682;23.294;2023-12-14T09:39:01;8.17;;;4.77;;
11970;SDS011;6045;42.682;23.294;2023-12-14T09:41:29;9.30;;;4.33;;
11970;SDS011;6045;42.682;23.294;2023-12-14T09:43:56;7.93;;;5.03;;
11970;SDS011;6045;42.682;23.294;2023-12-14T09:46:24;7.87;;;4.20;;
11970;SDS011;6045;42.682;23.294;2023-12-14T09:48:54;8.83;;;4.57;;
11970;SDS011;6045;42.682;23.294;2023-12-14T09:51:23;6.90;;;4.23;;
11970;SDS011;6045;42.682;23.294;2023-12-14T09:53:49;7.27;;;4.90;;
11970;SDS011;6045;42.682;23.294;2023-12-14T09:56:18;10.93;;;4.30;;
11970;SDS011;6045;42.682;23.294;2023-12-14T09:58:45;9.87;;;5.13;;
11970;SDS011;6045;42.682;23.294;2023-12-14T10:01:21;8.17;;;4.50;;
11970;SDS011;6045;42.682;23.294;2023-12-14T10:03:49;9.13;;;5.37;;
11970;SDS011;6045;42.682;23.294;2023-12-14T10:06:18;5.67;;;5.00;;
11970;SDS011;6045;42.682;23.294;2023-12-14T10:08:53;8.23;;;5.30;;
11970;SDS011;6045;42.682;23.294;2023-12-14T10:11:21;10.13;;;6.40;;
11970;SDS011;6045;42.682;23.294;2023-12-14T10:13:48;11.03;;;5.97;;
11970;SDS011;6045;42.682;23.294;2023-12-14T10:16:26;8.33;;;5.97;;
11970;SDS011;6045;42.682;23.294;2023-12-14T10:18:55;9.67;;;5.80;;
11970;SDS011;6045;42.682;23.294;2023-12-14T10:21:23;9.80;;;5.43;;
11970;SDS011;6045;42.682;23.294;2023-12-14T10:23:51;8.87;;;5.53;;
11970;SDS011;6045;42.682;23.294;2023-12-14T10:26:18;9.83;;;5.20;;
11970;SDS011;6045;42.682;23.294;2023-12-14T10:28:49;10.63;;;5.67;;
11970;SDS011;6045;42.682;23.294;2023-12-14T10:31:17;9.00;;;5.67;;
11970;SDS011;6045;42.682;23.294;2023-12-14T10:33:44;9.83;;;5.97;;
11970;SDS011;6045;42.682;23.294;2023-12-14T10:36:12;9.00;;;5.57;;
11970;SDS011;6045;42.682;23.294;2023-12-14T10:38:41;8.30;;;5.73;;
11970;SDS011;6045;42.682;23.294;2023-12-14T10:41:11;12.00;;;6.67;;
11970;SDS011;6045;42.682;23.294;2023-12-14T10:43:40;9.83;;;6.73;;
11970;SDS011;6045;42.682;23.294;2023-12-14T10:46:09;12.30;;;6.97;;
11970;SDS011;6045;42.682;23.294;2023-12-14T10:48:37;14.23;;;7.73;;
11970;SDS011;6045;42.682;23.294;2023-12-14T10:51:07;9.77;;;6.93;;
11970;SDS011;6045;42.682;23.294;2023-12-14T10:53:35;10.23;;;5.87;;
11970;SDS011;6045;42.682;23.294;2023-12-14T10:56:05;8.63;;;5.53;;
11970;SDS011;6045;42.682;23.294;2023-12-14T10:58:45;10.53;;;5.63;;
11970;SDS011;6045;42.682;23.294;2023-12-14T11:01:13;9.67;;;6.27;;
11970;SDS011;6045;42.682;23.294;2023-12-14T11:03:42;8.00;;;6.37;;
11970;SDS011;6045;42.682;23.294;2023-12-14T11:06:29;10.23;;;5.80;;
11970;SDS011;6045;42.682;23.294;2023-12-14T11:08:59;7.67;;;4.47;;
11970;SDS011;6045;42.682;23.294;2023-12-14T11:11:32;7.07;;;3.47;;
11970;SDS011;6045;42.682;23.294;2023-12-14T11:14:10;7.73;;;3.37;;
11970;SDS011;6045;42.682;23.294;2023-12-14T11:16:38;6.33;;;3.97;;
11970;SDS011;6045;42.682;23.294;2023-12-14T11:19:25;6.77;;;3.10;;
11970;SDS011;6045;42.682;23.294;2023-12-14T11:22:00;5.20;;;2.37;;
11970;SDS011;6045;42.682;23.294;2023-12-14T11:24:37;5.87;;;2.90;;
11970;SDS011;6045;42.682;23.294;2023-12-14T11:27:11;4.20;;;2.70;;
11970;SDS011;6045;42.682;23.294;2023-12-14T11:29:38;5.00;;;3.03;;
11970;SDS011;6045;42.682;23.294;2023-12-14T11:32:07;4.20;;;2.67;;
11970;SDS011;6045;42.682;23.294;2023-12-14T11:34:34;3.63;;;2.80;;
11970;SDS011;6045;42.682;23.294;2023-12-14T11:37:02;3.87;;;2.50;;
11970;SDS011;6045;42.682;23.294;2023-12-14T11:39:31;4.30;;;2.10;;
11970;SDS011;6045;42.682;23.294;2023-12-14T11:41:58;4.73;;;2.20;;
11970;SDS011;6045;42.682;23.294;2023-12-14T11:44:27;2.53;;;1.70;;
11970;SDS011;6045;42.682;23.294;2023-12-14T11:46:55;2.57;;;1.80;;
11970;SDS011;6045;42.682;23.294;2023-12-14T11:49:23;3.20;;;2.10;;
11970;SDS011;6045;42.682;23.294;2023-12-14T11:51:51;4.90;;;2.10;;
11970;SDS011;6045;42.682;23.294;2023-12-14T11:54:18;2.77;;;1.80;;
11970;SDS011;6045;42.682;23.294;2023-12-14T11:56:46;2.63;;;1.50;;
11970;SDS011;6045;42.682;23.294;2023-12-14T11:59:14;2.53;;;1.70;;
11970;SDS011;6045;42.682;23.294;2023-12-14T12:01:54;5.00;;;1.67;;
11970;SDS011;6045;42.682;23.294;2023-12-14T12:04:23;2.10;;;1.70;;
11970;SDS011;6045;42.682;23.294;2023-12-14T12:06:58;6.23;;;1.87;;
11970;SDS011;6045;42.682;23.294;2023-12-14T12:09:33;3.80;;;1.43;;
11970;SDS011;6045;42.682;23.294;2023-12-14T12:12:07;2.43;;;1.30;;
11970;SDS011;6045;42.682;23.294;2023-12-14T12:14:35;2.43;;;1.07;;
11970;SDS011;6045;42.682;23.294;2023-12-14T12:17:04;2.10;;;1.10;;
11970;SDS011;6045;42.682;23.294;2023-12-14T12:19:32;1.83;;;1.10;;
11970;SDS011;6045;42.682;23.294;2023-12-14T12:21:59;1.10;;;0.80;;
11970;SDS011;6045;42.682;23.294;2023-12-14T12:24:26;1.57;;;0.80;;
11970;SDS011;6045;42.682;23.294;2023-12-14T12:26:53;1.43;;;0.80;;
11970;SDS011;6045;42.682;23.294;2023-12-14T12:29:20;2.23;;;0.80;;
11970;SDS011;6045;42.682;23.294;2023-12-14T12:31:47;3.20;;;1.00;;
11970;SDS011;6045;42.682;23.294;2023-12-14T12:34:15;4.20;;;1.30;;
11970;SDS011;6045;42.682;23.294;2023-12-14T12:36:42;3.43;;;1.30;;
11970;SDS011;6045;42.682;23.294;2023-12-14T12:39:09;2.40;;;1.23;;
11970;SDS011;6045;42.682;23.294;2023-12-14T12:41:36;4.77;;;1.50;;
11970;SDS011;6045;42.682;23.294;2023-12-14T12:44:03;1.03;;;0.70;;
11970;SDS011;6045;42.682;23.294;2023-12-14T12:46:33;2.63;;;1.03;;
11970;SDS011;6045;42.682;23.294;2023-12-14T12:49:00;1.90;;;1.00;;
11970;SDS011;6045;42.682;23.294;2023-12-14T12:51:30;1.03;;;0.67;;
11970;SDS011;6045;42.682;23.294;2023-12-14T12:53:58;1.20;;;0.50;;
11970;SDS011;6045;42.682;23.294;2023-12-14T12:56:25;0.67;;;0.63;;
11970;SDS011;6045;42.682;23.294;2023-12-14T12:58:53;0.97;;;0.53;;
11970;SDS011;6045;42.682;23.294;2023-12-14T13:01:20;2.23;;;0.60;;
11970;SDS011;6045;42.682;23.294;2023-12-14T13:03:52;1.17;;;0.70;;
11970;SDS011;6045;42.682;23.294;2023-12-14T13:06:20;0.60;;;0.60;;
11970;SDS011;6045;42.682;23.294;2023-12-14T13:08:48;0.47;;;0.47;;
11970;SDS011;6045;42.682;23.294;2023-12-14T13:11:16;3.30;;;0.83;;
11970;SDS011;6045;42.682;23.294;2023-12-14T13:13:43;0.93;;;0.90;;
11970;SDS011;6045;42.682;23.294;2023-12-14T13:16:10;1.70;;;0.70;;
11970;SDS011;6045;42.682;23.294;2023-12-14T13:18:39;1.77;;;1.00;;
11970;SDS011;6045;42.682;23.294;2023-12-14T13:21:06;4.10;;;1.17;;
11970;SDS011;6045;42.682;23.294;2023-12-14T13:23:33;2.07;;;0.80;;
11970;SDS011;6045;42.682;23.294;2023-12-14T13:26:01;0.80;;;0.50;;
11970;SDS011;6045;42.682;23.294;2023-12-14T13:28:28;1.53;;;0.70;;
11970;SDS011;6045;42.682;23.294;2023-12-14T13:30:55;0.57;;;0.57;;
11970;SDS011;6045;42.682;23.294;2023-12-14T13:33:22;1.90;;;0.77;;
11970;SDS011;6045;42.682;23.294;2023-12-14T13:35:49;1.03;;;0.70;;
11970;SDS011;6045;42.682;23.294;2023-12-14T13:38:18;1.00;;;0.77;;
11970;SDS011;6045;42.682;23.294;2023-12-14T13:40:45;1.53;;;0.83;;
11970;SDS011;6045;42.682;23.294;2023-12-14T13:43:13;0.80;;;0.80;;
11970;SDS011;6045;42.682;23.294;2023-12-14T13:45:40;1.33;;;0.90;;
11970;SDS011;6045;42.682;23.294;2023-12-14T13:48:07;0.63;;;0.63;;
11970;SDS011;6045;42.682;23.294;2023-12-14T13:50:34;1.03;;;0.90;;
11970;SDS011;6045;42.682;23.294;2023-12-14T13:53:02;0.87;;;0.70;;
11970;SDS011;6045;42.682;23.294;2023-12-14T13:55:29;1.17;;;1.00;;
11970;SDS011;6045;42.682;23.294;2023-12-14T13:57:56;1.17;;;1.07;;
11970;SDS011;6045;42.682;23.294;2023-12-14T14:00:27;1.20;;;1.10;;
11970;SDS011;6045;42.682;23.294;2023-12-14T14:02:54;1.87;;;0.90;;
11970;SDS011;6045;42.682;23.294;2023-12-14T14:05:21;0.77;;;0.60;;
11970;SDS011;6045;42.682;23.294;2023-12-14T14:07:48;1.03;;;0.90;;
11970;SDS011;6045;42.682;23.294;2023-12-14T14:10:15;2.63;;;1.20;;
11970;SDS011;6045;42.682;23.294;2023-12-14T14:12:42;1.60;;;1.10;;
11970;SDS011;6045;42.682;23.294;2023-12-14T14:15:10;1.97;;;1.33;;
11970;SDS011;6045;42.682;23.294;2023-12-14T14:17:38;2.93;;;1.27;;
11970;SDS011;6045;42.682;23.294;2023-12-14T14:20:05;1.63;;;1.27;;
11970;SDS011;6045;42.682;23.294;2023-12-14T14:22:35;1.30;;;0.90;;
11970;SDS011;6045;42.682;23.294;2023-12-14T14:25:03;2.17;;;0.93;;
11970;SDS011;6045;42.682;23.294;2023-12-14T14:27:31;1.40;;;1.03;;
11970;SDS011;6045;42.682;23.294;2023-12-14T14:29:58;1.47;;;1.20;;
11970;SDS011;6045;42.682;23.294;2023-12-14T14:32:25;3.83;;;1.40;;
11970;SDS011;6045;42.682;23.294;2023-12-14T14:34:54;4.97;;;1.20;;
11970;SDS011;6045;42.682;23.294;2023-12-14T14:37:23;5.80;;;1.80;;
11970;SDS011;6045;42.682;23.294;2023-12-14T14:39:50;1.27;;;1.10;;
11970;SDS011;6045;42.682;23.294;2023-12-14T14:42:17;1.87;;;1.40;;